<?xml version="1.0" encoding="UTF-8" standalone="no" ?>
<gpx xmlns="http://www.topografix.com/GPX/1/1" xmlns:xsi="http://www.w3.org/2001/XMLSchema-instance" xsi:schemaLocation="http://www.topografix.com/GPX/1/1 http://www.topografix.com/GPX/1/1/gpx.xsd" version="1.1" creator="VisuGPX - https://www.visugpx.com">
  <metadata>
    <name>La Chapelle-largeau   l'Escoubleau</name>
  </metadata>
  <trk>
    <name><![CDATA[14773994-MPS l'Escoubleau]]></name>
    <trkseg>
      <trkpt lat="46.95336" lon="-0.8207">
        <ele>117</ele>
        <time>2022-05-17T08:59:51Z</time>
      </trkpt>
      <trkpt lat="46.95329" lon="-0.82057">
        <ele>117</ele>
        <time>2022-05-17T09:00:00Z</time>
      </trkpt>
      <trkpt lat="46.95339" lon="-0.82038">
        <ele>117</ele>
        <time>2022-05-17T09:00:13Z</time>
      </trkpt>
      <trkpt lat="46.95377" lon="-0.81988">
        <ele>119</ele>
        <time>2022-05-17T09:00:54Z</time>
      </trkpt>
      <trkpt lat="46.95379" lon="-0.81948">
        <ele>119</ele>
        <time>2022-05-17T09:01:16Z</time>
      </trkpt>
      <trkpt lat="46.9535" lon="-0.81877">
        <ele>118</ele>
        <time>2022-05-17T09:02:01Z</time>
      </trkpt>
      <trkpt lat="46.95364" lon="-0.81846">
        <ele>118</ele>
        <time>2022-05-17T09:02:22Z</time>
      </trkpt>
      <trkpt lat="46.95397" lon="-0.81827">
        <ele>119</ele>
        <time>2022-05-17T09:02:50Z</time>
      </trkpt>
      <trkpt lat="46.95434" lon="-0.81764">
        <ele>122</ele>
        <time>2022-05-17T09:03:35Z</time>
      </trkpt>
      <trkpt lat="46.95432" lon="-0.81749">
        <ele>122</ele>
        <time>2022-05-17T09:03:44Z</time>
      </trkpt>
      <trkpt lat="46.9542" lon="-0.81729">
        <ele>121</ele>
        <time>2022-05-17T09:03:58Z</time>
      </trkpt>
      <trkpt lat="46.95383" lon="-0.81713">
        <ele>121</ele>
        <time>2022-05-17T09:04:29Z</time>
      </trkpt>
      <trkpt lat="46.95351" lon="-0.81656">
        <ele>124</ele>
        <time>2022-05-17T09:05:09Z</time>
      </trkpt>
      <trkpt lat="46.95302" lon="-0.81543">
        <ele>129</ele>
        <time>2022-05-17T09:06:23Z</time>
      </trkpt>
      <trkpt lat="46.95278" lon="-0.81458">
        <ele>132</ele>
        <time>2022-05-17T09:07:13Z</time>
      </trkpt>
      <trkpt lat="46.95192" lon="-0.81296">
        <ele>135</ele>
        <time>2022-05-17T09:09:05Z</time>
      </trkpt>
      <trkpt lat="46.95153" lon="-0.81197">
        <ele>137</ele>
        <time>2022-05-17T09:10:08Z</time>
      </trkpt>
      <trkpt lat="46.95078" lon="-0.81081">
        <ele>136</ele>
        <time>2022-05-17T09:11:35Z</time>
      </trkpt>
      <trkpt lat="46.95058" lon="-0.81039">
        <ele>135</ele>
        <time>2022-05-17T09:12:03Z</time>
      </trkpt>
      <trkpt lat="46.95021" lon="-0.80974">
        <ele>134</ele>
        <time>2022-05-17T09:12:49Z</time>
      </trkpt>
      <trkpt lat="46.94984" lon="-0.80937">
        <ele>132</ele>
        <time>2022-05-17T09:13:25Z</time>
      </trkpt>
      <trkpt lat="46.94922" lon="-0.80911">
        <ele>128</ele>
        <time>2022-05-17T09:14:17Z</time>
      </trkpt>
      <trkpt lat="46.94906" lon="-0.80902">
        <ele>127</ele>
        <time>2022-05-17T09:14:30Z</time>
      </trkpt>
      <trkpt lat="46.94895" lon="-0.80905">
        <ele>127</ele>
        <time>2022-05-17T09:14:39Z</time>
      </trkpt>
      <trkpt lat="46.94909" lon="-0.80958">
        <ele>126</ele>
        <time>2022-05-17T09:15:10Z</time>
      </trkpt>
      <trkpt lat="46.94912" lon="-0.80995">
        <ele>125</ele>
        <time>2022-05-17T09:15:31Z</time>
      </trkpt>
      <trkpt lat="46.94911" lon="-0.8104">
        <ele>126</ele>
        <time>2022-05-17T09:15:55Z</time>
      </trkpt>
      <trkpt lat="46.94904" lon="-0.81084">
        <ele>127</ele>
        <time>2022-05-17T09:16:20Z</time>
      </trkpt>
      <trkpt lat="46.94893" lon="-0.81134">
        <ele>128</ele>
        <time>2022-05-17T09:16:49Z</time>
      </trkpt>
      <trkpt lat="46.94878" lon="-0.8117">
        <ele>130</ele>
        <time>2022-05-17T09:17:12Z</time>
      </trkpt>
      <trkpt lat="46.94864" lon="-0.81205">
        <ele>130</ele>
        <time>2022-05-17T09:17:34Z</time>
      </trkpt>
      <trkpt lat="46.94849" lon="-0.81262">
        <ele>131</ele>
        <time>2022-05-17T09:18:07Z</time>
      </trkpt>
      <trkpt lat="46.94846" lon="-0.81314">
        <ele>133</ele>
        <time>2022-05-17T09:18:36Z</time>
      </trkpt>
      <trkpt lat="46.94842" lon="-0.81335">
        <ele>133</ele>
        <time>2022-05-17T09:18:48Z</time>
      </trkpt>
      <trkpt lat="46.94829" lon="-0.81358">
        <ele>134</ele>
        <time>2022-05-17T09:19:04Z</time>
      </trkpt>
      <trkpt lat="46.94783" lon="-0.81415">
        <ele>136</ele>
        <time>2022-05-17T09:19:52Z</time>
      </trkpt>
      <trkpt lat="46.94746" lon="-0.81454">
        <ele>137</ele>
        <time>2022-05-17T09:20:29Z</time>
      </trkpt>
      <trkpt lat="46.94678" lon="-0.81581">
        <ele>138</ele>
        <time>2022-05-17T09:21:57Z</time>
      </trkpt>
      <trkpt lat="46.94672" lon="-0.81607">
        <ele>138</ele>
        <time>2022-05-17T09:22:12Z</time>
      </trkpt>
      <trkpt lat="46.9467" lon="-0.81628">
        <ele>138</ele>
        <time>2022-05-17T09:22:24Z</time>
      </trkpt>
      <trkpt lat="46.94688" lon="-0.81711">
        <ele>138</ele>
        <time>2022-05-17T09:23:11Z</time>
      </trkpt>
      <trkpt lat="46.94647" lon="-0.81748">
        <ele>138</ele>
        <time>2022-05-17T09:23:50Z</time>
      </trkpt>
      <trkpt lat="46.9462" lon="-0.81757">
        <ele>139</ele>
        <time>2022-05-17T09:24:12Z</time>
      </trkpt>
      <trkpt lat="46.94596" lon="-0.8176">
        <ele>139</ele>
        <time>2022-05-17T09:24:31Z</time>
      </trkpt>
      <trkpt lat="46.94577" lon="-0.81769">
        <ele>139</ele>
        <time>2022-05-17T09:24:47Z</time>
      </trkpt>
      <trkpt lat="46.94517" lon="-0.81824">
        <ele>139</ele>
        <time>2022-05-17T09:25:44Z</time>
      </trkpt>
      <trkpt lat="46.945" lon="-0.8184">
        <ele>140</ele>
        <time>2022-05-17T09:26:00Z</time>
      </trkpt>
      <trkpt lat="46.94421" lon="-0.81881">
        <ele>145</ele>
        <time>2022-05-17T09:27:07Z</time>
      </trkpt>
      <trkpt lat="46.94399" lon="-0.81902">
        <ele>149</ele>
        <time>2022-05-17T09:27:28Z</time>
      </trkpt>
      <trkpt lat="46.9438" lon="-0.81923">
        <ele>153</ele>
        <time>2022-05-17T09:27:47Z</time>
      </trkpt>
      <trkpt lat="46.94358" lon="-0.81936">
        <ele>157</ele>
        <time>2022-05-17T09:28:06Z</time>
      </trkpt>
      <trkpt lat="46.94258" lon="-0.81921">
        <ele>167</ele>
        <time>2022-05-17T09:29:27Z</time>
      </trkpt>
      <trkpt lat="46.94243" lon="-0.81924">
        <ele>167</ele>
        <time>2022-05-17T09:29:39Z</time>
      </trkpt>
      <trkpt lat="46.94207" lon="-0.81967">
        <ele>171</ele>
        <time>2022-05-17T09:30:16Z</time>
      </trkpt>
      <trkpt lat="46.94148" lon="-0.82001">
        <ele>175</ele>
        <time>2022-05-17T09:31:07Z</time>
      </trkpt>
      <trkpt lat="46.94068" lon="-0.82029">
        <ele>182</ele>
        <time>2022-05-17T09:32:13Z</time>
      </trkpt>
      <trkpt lat="46.94064" lon="-0.82035">
        <ele>182</ele>
        <time>2022-05-17T09:32:17Z</time>
      </trkpt>
      <trkpt lat="46.94061" lon="-0.82033">
        <ele>182</ele>
        <time>2022-05-17T09:32:20Z</time>
      </trkpt>
      <trkpt lat="46.94027" lon="-0.82046">
        <ele>185</ele>
        <time>2022-05-17T09:32:48Z</time>
      </trkpt>
      <trkpt lat="46.93997" lon="-0.82054">
        <ele>187</ele>
        <time>2022-05-17T09:33:13Z</time>
      </trkpt>
      <trkpt lat="46.93965" lon="-0.82069">
        <ele>189</ele>
        <time>2022-05-17T09:33:39Z</time>
      </trkpt>
      <trkpt lat="46.9393" lon="-0.821">
        <ele>191</ele>
        <time>2022-05-17T09:34:12Z</time>
      </trkpt>
      <trkpt lat="46.93815" lon="-0.82278">
        <ele>204</ele>
        <time>2022-05-17T09:36:26Z</time>
      </trkpt>
      <trkpt lat="46.93792" lon="-0.82319">
        <ele>206</ele>
        <time>2022-05-17T09:36:55Z</time>
      </trkpt>
      <trkpt lat="46.9378" lon="-0.82346">
        <ele>208</ele>
        <time>2022-05-17T09:37:13Z</time>
      </trkpt>
      <trkpt lat="46.93751" lon="-0.82428">
        <ele>213</ele>
        <time>2022-05-17T09:38:03Z</time>
      </trkpt>
      <trkpt lat="46.93721" lon="-0.82499">
        <ele>215</ele>
        <time>2022-05-17T09:38:49Z</time>
      </trkpt>
      <trkpt lat="46.93704" lon="-0.82534">
        <ele>216</ele>
        <time>2022-05-17T09:39:12Z</time>
      </trkpt>
      <trkpt lat="46.93658" lon="-0.82601">
        <ele>218</ele>
        <time>2022-05-17T09:40:04Z</time>
      </trkpt>
      <trkpt lat="46.9363" lon="-0.82651">
        <ele>216</ele>
        <time>2022-05-17T09:40:40Z</time>
      </trkpt>
      <trkpt lat="46.93663" lon="-0.8274">
        <ele>217</ele>
        <time>2022-05-17T09:41:35Z</time>
      </trkpt>
      <trkpt lat="46.93668" lon="-0.82762">
        <ele>217</ele>
        <time>2022-05-17T09:41:48Z</time>
      </trkpt>
      <trkpt lat="46.93719" lon="-0.82803">
        <ele>217</ele>
        <time>2022-05-17T09:42:34Z</time>
      </trkpt>
      <trkpt lat="46.9374" lon="-0.82833">
        <ele>217</ele>
        <time>2022-05-17T09:42:58Z</time>
      </trkpt>
      <trkpt lat="46.93774" lon="-0.82892">
        <ele>217</ele>
        <time>2022-05-17T09:43:40Z</time>
      </trkpt>
      <trkpt lat="46.93808" lon="-0.82965">
        <ele>215</ele>
        <time>2022-05-17T09:44:28Z</time>
      </trkpt>
      <trkpt lat="46.93828" lon="-0.83027">
        <ele>214</ele>
        <time>2022-05-17T09:45:06Z</time>
      </trkpt>
      <trkpt lat="46.93857" lon="-0.82992">
        <ele>212</ele>
        <time>2022-05-17T09:45:36Z</time>
      </trkpt>
      <trkpt lat="46.939" lon="-0.82985">
        <ele>209</ele>
        <time>2022-05-17T09:46:11Z</time>
      </trkpt>
      <trkpt lat="46.93978" lon="-0.83005">
        <ele>204</ele>
        <time>2022-05-17T09:47:14Z</time>
      </trkpt>
      <trkpt lat="46.94067" lon="-0.8305">
        <ele>195</ele>
        <time>2022-05-17T09:48:29Z</time>
      </trkpt>
      <trkpt lat="46.94078" lon="-0.82988">
        <ele>196</ele>
        <time>2022-05-17T09:49:04Z</time>
      </trkpt>
      <trkpt lat="46.94116" lon="-0.82846">
        <ele>195</ele>
        <time>2022-05-17T09:50:28Z</time>
      </trkpt>
      <trkpt lat="46.94125" lon="-0.82784">
        <ele>195</ele>
        <time>2022-05-17T09:51:02Z</time>
      </trkpt>
      <trkpt lat="46.9414" lon="-0.82823">
        <ele>194</ele>
        <time>2022-05-17T09:51:27Z</time>
      </trkpt>
      <trkpt lat="46.9415" lon="-0.82834">
        <ele>194</ele>
        <time>2022-05-17T09:51:37Z</time>
      </trkpt>
      <trkpt lat="46.94252" lon="-0.82801">
        <ele>183</ele>
        <time>2022-05-17T09:53:00Z</time>
      </trkpt>
      <trkpt lat="46.94266" lon="-0.82835">
        <ele>183</ele>
        <time>2022-05-17T09:53:22Z</time>
      </trkpt>
      <trkpt lat="46.94288" lon="-0.82838">
        <ele>181</ele>
        <time>2022-05-17T09:53:40Z</time>
      </trkpt>
      <trkpt lat="46.94316" lon="-0.82824">
        <ele>177</ele>
        <time>2022-05-17T09:54:04Z</time>
      </trkpt>
      <trkpt lat="46.94327" lon="-0.82787">
        <ele>174</ele>
        <time>2022-05-17T09:54:26Z</time>
      </trkpt>
      <trkpt lat="46.94351" lon="-0.82746">
        <ele>172</ele>
        <time>2022-05-17T09:54:55Z</time>
      </trkpt>
      <trkpt lat="46.94391" lon="-0.82752">
        <ele>171</ele>
        <time>2022-05-17T09:55:27Z</time>
      </trkpt>
      <trkpt lat="46.94412" lon="-0.82747">
        <ele>171</ele>
        <time>2022-05-17T09:55:44Z</time>
      </trkpt>
      <trkpt lat="46.94429" lon="-0.82728">
        <ele>170</ele>
        <time>2022-05-17T09:56:01Z</time>
      </trkpt>
      <trkpt lat="46.94448" lon="-0.82718">
        <ele>168</ele>
        <time>2022-05-17T09:56:18Z</time>
      </trkpt>
      <trkpt lat="46.94491" lon="-0.8272">
        <ele>164</ele>
        <time>2022-05-17T09:56:52Z</time>
      </trkpt>
      <trkpt lat="46.94579" lon="-0.82626">
        <ele>158</ele>
        <time>2022-05-17T09:58:19Z</time>
      </trkpt>
      <trkpt lat="46.94703" lon="-0.82548">
        <ele>141</ele>
        <time>2022-05-17T10:00:07Z</time>
      </trkpt>
      <trkpt lat="46.94755" lon="-0.825">
        <ele>132</ele>
        <time>2022-05-17T10:00:57Z</time>
      </trkpt>
      <trkpt lat="46.94772" lon="-0.82497">
        <ele>131</ele>
        <time>2022-05-17T10:01:10Z</time>
      </trkpt>
      <trkpt lat="46.95099" lon="-0.82299">
        <ele>121</ele>
        <time>2022-05-17T10:05:54Z</time>
      </trkpt>
      <trkpt lat="46.95215" lon="-0.82176">
        <ele>118</ele>
        <time>2022-05-17T10:07:48Z</time>
      </trkpt>
      <trkpt lat="46.95264" lon="-0.82154">
        <ele>117</ele>
        <time>2022-05-17T10:08:29Z</time>
      </trkpt>
      <trkpt lat="46.953" lon="-0.82111">
        <ele>117</ele>
        <time>2022-05-17T10:09:06Z</time>
      </trkpt>
      <trkpt lat="46.95326" lon="-0.82065">
        <ele>117</ele>
        <time>2022-05-17T10:09:39Z</time>
      </trkpt>
      <trkpt lat="46.95336" lon="-0.8207">
        <ele>117</ele>
        <time>2022-05-17T10:09:48Z</time>
      </trkpt>
    </trkseg>
  </trk>
</gpx>